sensor_id;sensor_type;location;lat;lon;timestamp;P1;durP1;ratioP1;P2;durP2;ratioP2
21758;SDS011;11041;50.854;20.580;2024-01-30T00:00:26;95.28;;;47.75;;
21758;SDS011;11041;50.854;20.580;2024-01-30T00:03:13;92.93;;;45.87;;
21758;SDS011;11041;50.854;20.580;2024-01-30T00:05:39;101.17;;;50.67;;
21758;SDS011;11041;50.854;20.580;2024-01-30T00:08:06;97.90;;;48.57;;
21758;SDS011;11041;50.854;20.580;2024-01-30T00:10:32;124.23;;;58.87;;
21758;SDS011;11041;50.854;20.580;2024-01-30T00:12:59;137.50;;;66.90;;
21758;SDS011;11041;50.854;20.580;2024-01-30T00:15:25;135.43;;;61.50;;
21758;SDS011;11041;50.854;20.580;2024-01-30T00:17:51;116.78;;;57.17;;
21758;SDS011;11041;50.854;20.580;2024-01-30T00:20:18;114.72;;;56.25;;
21758;SDS011;11041;50.854;20.580;2024-01-30T00:22:45;111.50;;;52.47;;
21758;SDS011;11041;50.854;20.580;2024-01-30T00:25:11;112.50;;;56.33;;
21758;SDS011;11041;50.854;20.580;2024-01-30T00:27:39;110.07;;;53.77;;
21758;SDS011;11041;50.854;20.580;2024-01-30T00:30:07;103.77;;;49.27;;
21758;SDS011;11041;50.854;20.580;2024-01-30T00:32:34;88.70;;;44.83;;
21758;SDS011;11041;50.854;20.580;2024-01-30T00:35:04;82.43;;;45.70;;
21758;SDS011;11041;50.854;20.580;2024-01-30T00:37:31;74.57;;;41.13;;
21758;SDS011;11041;50.854;20.580;2024-01-30T00:40:01;86.30;;;42.67;;
21758;SDS011;11041;50.854;20.580;2024-01-30T00:42:31;87.50;;;42.90;;
21758;SDS011;11041;50.854;20.580;2024-01-30T00:45:01;82.13;;;42.23;;
21758;SDS011;11041;50.854;20.580;2024-01-30T00:47:33;79.10;;;40.57;;
21758;SDS011;11041;50.854;20.580;2024-01-30T00:50:01;87.10;;;41.35;;
21758;SDS011;11041;50.854;20.580;2024-01-30T00:52:28;93.67;;;45.53;;
21758;SDS011;11041;50.854;20.580;2024-01-30T00:54:56;90.10;;;44.80;;
21758;SDS011;11041;50.854;20.580;2024-01-30T00:57:23;95.33;;;43.30;;
21758;SDS011;11041;50.854;20.580;2024-01-30T00:59:50;85.07;;;42.27;;
21758;SDS011;11041;50.854;20.580;2024-01-30T01:02:18;86.43;;;44.30;;
21758;SDS011;11041;50.854;20.580;2024-01-30T01:04:44;85.70;;;41.67;;
21758;SDS011;11041;50.854;20.580;2024-01-30T01:07:11;82.53;;;38.50;;
21758;SDS011;11041;50.854;20.580;2024-01-30T01:09:38;73.03;;;36.70;;
21758;SDS011;11041;50.854;20.580;2024-01-30T01:12:05;77.20;;;38.73;;
21758;SDS011;11041;50.854;20.580;2024-01-30T01:14:32;74.63;;;38.47;;
21758;SDS011;11041;50.854;20.580;2024-01-30T01:16:59;70.65;;;36.58;;
21758;SDS011;11041;50.854;20.580;2024-01-30T01:19:25;77.07;;;41.67;;
21758;SDS011;11041;50.854;20.580;2024-01-30T01:21:52;77.17;;;40.83;;
21758;SDS011;11041;50.854;20.580;2024-01-30T01:24:20;85.00;;;46.53;;
21758;SDS011;11041;50.854;20.580;2024-01-30T01:26:47;79.90;;;41.80;;
21758;SDS011;11041;50.854;20.580;2024-01-30T01:29:13;79.87;;;40.70;;
21758;SDS011;11041;50.854;20.580;2024-01-30T01:31:41;81.67;;;40.23;;
21758;SDS011;11041;50.854;20.580;2024-01-30T01:34:14;82.70;;;42.17;;
21758;SDS011;11041;50.854;20.580;2024-01-30T01:36:44;75.00;;;38.00;;
21758;SDS011;11041;50.854;20.580;2024-01-30T01:39:10;77.07;;;40.83;;
21758;SDS011;11041;50.854;20.580;2024-01-30T01:41:37;77.13;;;40.43;;
21758;SDS011;11041;50.854;20.580;2024-01-30T01:44:03;95.93;;;48.63;;
21758;SDS011;11041;50.854;20.580;2024-01-30T01:46:32;86.80;;;44.17;;
21758;SDS011;11041;50.854;20.580;2024-01-30T01:49:00;84.47;;;41.97;;
21758;SDS011;11041;50.854;20.580;2024-01-30T01:51:31;77.73;;;39.83;;
21758;SDS011;11041;50.854;20.580;2024-01-30T01:54:02;72.17;;;38.57;;
21758;SDS011;11041;50.854;20.580;2024-01-30T01:56:31;69.47;;;38.20;;
21758;SDS011;11041;50.854;20.580;2024-01-30T01:59:00;62.80;;;34.60;;
21758;SDS011;11041;50.854;20.580;2024-01-30T02:01:38;61.13;;;33.47;;
21758;SDS011;11041;50.854;20.580;2024-01-30T02:04:07;65.53;;;36.80;;
21758;SDS011;11041;50.854;20.580;2024-01-30T02:06:34;66.43;;;34.50;;
21758;SDS011;11041;50.854;20.580;2024-01-30T02:09:01;61.63;;;32.87;;
21758;SDS011;11041;50.854;20.580;2024-01-30T02:11:27;60.92;;;32.55;;
21758;SDS011;11041;50.854;20.580;2024-01-30T02:13:54;64.27;;;33.40;;
21758;SDS011;11041;50.854;20.580;2024-01-30T02:16:21;57.27;;;31.87;;
21758;SDS011;11041;50.854;20.580;2024-01-30T02:18:47;56.40;;;32.33;;
21758;SDS011;11041;50.854;20.580;2024-01-30T02:21:15;56.95;;;32.90;;
21758;SDS011;11041;50.854;20.580;2024-01-30T02:23:44;61.10;;;33.93;;
21758;SDS011;11041;50.854;20.580;2024-01-30T02:26:19;57.40;;;30.83;;
21758;SDS011;11041;50.854;20.580;2024-01-30T02:28:45;57.47;;;32.37;;
21758;SDS011;11041;50.854;20.580;2024-01-30T02:31:14;62.40;;;33.00;;
21758;SDS011;11041;50.854;20.580;2024-01-30T02:33:43;62.93;;;31.77;;
21758;SDS011;11041;50.854;20.580;2024-01-30T02:36:15;67.43;;;33.90;;
21758;SDS011;11041;50.854;20.580;2024-01-30T02:38:47;66.80;;;33.80;;
21758;SDS011;11041;50.854;20.580;2024-01-30T02:41:18;66.47;;;33.97;;
21758;SDS011;11041;50.854;20.580;2024-01-30T02:43:45;65.67;;;33.40;;
21758;SDS011;11041;50.854;20.580;2024-01-30T02:46:12;65.28;;;32.30;;
21758;SDS011;11041;50.854;20.580;2024-01-30T02:48:44;61.10;;;31.53;;
21758;SDS011;11041;50.854;20.580;2024-01-30T02:51:13;61.27;;;30.87;;
21758;SDS011;11041;50.854;20.580;2024-01-30T02:53:44;66.43;;;31.47;;
21758;SDS011;11041;50.854;20.580;2024-01-30T02:56:11;62.30;;;33.07;;
21758;SDS011;11041;50.854;20.580;2024-01-30T02:58:39;67.20;;;33.17;;
21758;SDS011;11041;50.854;20.580;2024-01-30T03:01:08;63.37;;;33.17;;
21758;SDS011;11041;50.854;20.580;2024-01-30T03:03:36;64.87;;;33.00;;
21758;SDS011;11041;50.854;20.580;2024-01-30T03:06:08;59.80;;;31.03;;
21758;SDS011;11041;50.854;20.580;2024-01-30T03:08:37;60.13;;;32.17;;
21758;SDS011;11041;50.854;20.580;2024-01-30T03:11:07;65.37;;;32.33;;
21758;SDS011;11041;50.854;20.580;2024-01-30T03:13:34;89.70;;;43.53;;
21758;SDS011;11041;50.854;20.580;2024-01-30T03:16:03;102.67;;;47.57;;
21758;SDS011;11041;50.854;20.580;2024-01-30T03:18:36;116.43;;;49.60;;
21758;SDS011;11041;50.854;20.580;2024-01-30T03:21:06;80.10;;;37.50;;
21758;SDS011;11041;50.854;20.580;2024-01-30T03:23:38;72.80;;;36.77;;
21758;SDS011;11041;50.854;20.580;2024-01-30T03:26:08;78.00;;;39.43;;
21758;SDS011;11041;50.854;20.580;2024-01-30T03:28:38;68.27;;;34.67;;
21758;SDS011;11041;50.854;20.580;2024-01-30T03:31:07;67.43;;;35.20;;
21758;SDS011;11041;50.854;20.580;2024-01-30T03:33:38;63.27;;;32.50;;
21758;SDS011;11041;50.854;20.580;2024-01-30T03:36:08;62.57;;;30.50;;
21758;SDS011;11041;50.854;20.580;2024-01-30T03:38:40;58.33;;;30.85;;
21758;SDS011;11041;50.854;20.580;2024-01-30T03:41:08;53.10;;;28.20;;
21758;SDS011;11041;50.854;20.580;2024-01-30T03:43:36;52.40;;;28.97;;
21758;SDS011;11041;50.854;20.580;2024-01-30T03:46:06;57.77;;;29.43;;
21758;SDS011;11041;50.854;20.580;2024-01-30T03:48:34;74.03;;;36.47;;
21758;SDS011;11041;50.854;20.580;2024-01-30T03:51:01;158.33;;;61.50;;
21758;SDS011;11041;50.854;20.580;2024-01-30T03:53:30;189.77;;;73.07;;
21758;SDS011;11041;50.854;20.580;2024-01-30T03:55:58;259.67;;;89.53;;
21758;SDS011;11041;50.854;20.580;2024-01-30T03:58:27;188.97;;;70.80;;
21758;SDS011;11041;50.854;20.580;2024-01-30T04:00:54;105.90;;;39.37;;
21758;SDS011;11041;50.854;20.580;2024-01-30T04:03:26;109.77;;;44.80;;
21758;SDS011;11041;50.854;20.580;2024-01-30T04:05:55;129.47;;;47.50;;
21758;SDS011;11041;50.854;20.580;2024-01-30T04:08:25;61.27;;;29.97;;
21758;SDS011;11041;50.854;20.580;2024-01-30T04:10:55;82.27;;;38.17;;
21758;SDS011;11041;50.854;20.580;2024-01-30T04:13:30;69.73;;;34.80;;
21758;SDS011;11041;50.854;20.580;2024-01-30T04:16:01;62.28;;;31.52;;
21758;SDS011;11041;50.854;20.580;2024-01-30T04:18:33;72.17;;;34.80;;
21758;SDS011;11041;50.854;20.580;2024-01-30T04:21:02;64.45;;;33.22;;
21758;SDS011;11041;50.854;20.580;2024-01-30T04:23:29;64.35;;;31.58;;
21758;SDS011;11041;50.854;20.580;2024-01-30T04:26:00;57.50;;;29.03;;
21758;SDS011;11041;50.854;20.580;2024-01-30T04:28:27;59.70;;;29.90;;
21758;SDS011;11041;50.854;20.580;2024-01-30T04:30:55;59.90;;;29.77;;
21758;SDS011;11041;50.854;20.580;2024-01-30T04:33:23;120.07;;;57.50;;
21758;SDS011;11041;50.854;20.580;2024-01-30T04:35:53;73.40;;;36.07;;
21758;SDS011;11041;50.854;20.580;2024-01-30T04:38:21;89.03;;;40.97;;
21758;SDS011;11041;50.854;20.580;2024-01-30T04:40:51;91.10;;;42.13;;
21758;SDS011;11041;50.854;20.580;2024-01-30T04:43:22;87.77;;;39.83;;
21758;SDS011;11041;50.854;20.580;2024-01-30T04:45:49;89.53;;;41.50;;
21758;SDS011;11041;50.854;20.580;2024-01-30T04:48:16;81.97;;;37.23;;
21758;SDS011;11041;50.854;20.580;2024-01-30T04:50:47;71.60;;;32.23;;
21758;SDS011;11041;50.854;20.580;2024-01-30T04:53:16;71.07;;;35.30;;
21758;SDS011;11041;50.854;20.580;2024-01-30T04:55:44;73.37;;;35.87;;
21758;SDS011;11041;50.854;20.580;2024-01-30T04:58:13;65.00;;;32.17;;
21758;SDS011;11041;50.854;20.580;2024-01-30T05:00:42;67.20;;;33.27;;
21758;SDS011;11041;50.854;20.580;2024-01-30T05:03:09;59.33;;;29.70;;
21758;SDS011;11041;50.854;20.580;2024-01-30T05:05:38;55.53;;;28.30;;
21758;SDS011;11041;50.854;20.580;2024-01-30T05:08:05;63.60;;;30.67;;
21758;SDS011;11041;50.854;20.580;2024-01-30T05:10:32;67.87;;;32.60;;
21758;SDS011;11041;50.854;20.580;2024-01-30T05:13:03;62.43;;;32.90;;
21758;SDS011;11041;50.854;20.580;2024-01-30T05:15:34;60.93;;;30.53;;
21758;SDS011;11041;50.854;20.580;2024-01-30T05:18:00;65.30;;;31.53;;
21758;SDS011;11041;50.854;20.580;2024-01-30T05:20:30;65.50;;;31.47;;
21758;SDS011;11041;50.854;20.580;2024-01-30T05:23:00;66.90;;;31.97;;
21758;SDS011;11041;50.854;20.580;2024-01-30T05:25:26;51.97;;;29.27;;
21758;SDS011;11041;50.854;20.580;2024-01-30T05:27:56;61.27;;;31.03;;
21758;SDS011;11041;50.854;20.580;2024-01-30T05:30:28;56.17;;;28.87;;
21758;SDS011;11041;50.854;20.580;2024-01-30T05:32:55;58.10;;;30.63;;
21758;SDS011;11041;50.854;20.580;2024-01-30T05:35:22;56.47;;;30.93;;
21758;SDS011;11041;50.854;20.580;2024-01-30T05:37:50;72.97;;;37.40;;
21758;SDS011;11041;50.854;20.580;2024-01-30T05:40:22;98.47;;;44.97;;
21758;SDS011;11041;50.854;20.580;2024-01-30T05:42:55;84.70;;;41.97;;
21758;SDS011;11041;50.854;20.580;2024-01-30T05:45:27;79.37;;;39.33;;
21758;SDS011;11041;50.854;20.580;2024-01-30T05:47:57;79.20;;;38.73;;
21758;SDS011;11041;50.854;20.580;2024-01-30T05:50:26;71.77;;;37.67;;
21758;SDS011;11041;50.854;20.580;2024-01-30T05:52:58;72.77;;;34.27;;
21758;SDS011;11041;50.854;20.580;2024-01-30T05:55:29;63.13;;;31.30;;
21758;SDS011;11041;50.854;20.580;2024-01-30T05:57:55;59.70;;;32.20;;
21758;SDS011;11041;50.854;20.580;2024-01-30T06:00:30;56.77;;;29.30;;
21758;SDS011;11041;50.854;20.580;2024-01-30T06:02:59;63.67;;;30.00;;
21758;SDS011;11041;50.854;20.580;2024-01-30T06:05:28;55.80;;;27.47;;
21758;SDS011;11041;50.854;20.580;2024-01-30T06:07:54;53.57;;;27.87;;
21758;SDS011;11041;50.854;20.580;2024-01-30T06:10:23;63.70;;;31.30;;
21758;SDS011;11041;50.854;20.580;2024-01-30T06:12:50;57.90;;;30.70;;
21758;SDS011;11041;50.854;20.580;2024-01-30T06:15:17;52.67;;;28.23;;
21758;SDS011;11041;50.854;20.580;2024-01-30T06:17:44;58.80;;;28.77;;
21758;SDS011;11041;50.854;20.580;2024-01-30T06:20:11;50.50;;;26.60;;
21758;SDS011;11041;50.854;20.580;2024-01-30T06:22:39;49.00;;;25.87;;
21758;SDS011;11041;50.854;20.580;2024-01-30T06:25:07;50.00;;;26.23;;
21758;SDS011;11041;50.854;20.580;2024-01-30T06:27:36;49.77;;;26.50;;
21758;SDS011;11041;50.854;20.580;2024-01-30T06:30:04;49.43;;;26.00;;
21758;SDS011;11041;50.854;20.580;2024-01-30T06:32:31;46.80;;;24.60;;
21758;SDS011;11041;50.854;20.580;2024-01-30T06:35:00;59.57;;;29.60;;
21758;SDS011;11041;50.854;20.580;2024-01-30T06:37:28;67.67;;;33.73;;
21758;SDS011;11041;50.854;20.580;2024-01-30T06:39:54;40.53;;;21.70;;
21758;SDS011;11041;50.854;20.580;2024-01-30T06:42:20;41.23;;;21.50;;
21758;SDS011;11041;50.854;20.580;2024-01-30T06:44:47;45.37;;;24.07;;
21758;SDS011;11041;50.854;20.580;2024-01-30T06:47:13;39.40;;;21.57;;
21758;SDS011;11041;50.854;20.580;2024-01-30T06:49:40;50.93;;;25.10;;
21758;SDS011;11041;50.854;20.580;2024-01-30T06:52:08;48.63;;;25.30;;
21758;SDS011;11041;50.854;20.580;2024-01-30T06:54:36;40.90;;;20.37;;
21758;SDS011;11041;50.854;20.580;2024-01-30T06:57:05;38.57;;;19.63;;
21758;SDS011;11041;50.854;20.580;2024-01-30T06:59:38;36.53;;;19.07;;
21758;SDS011;11041;50.854;20.580;2024-01-30T07:02:09;40.93;;;22.03;;
21758;SDS011;11041;50.854;20.580;2024-01-30T07:04:37;34.37;;;19.17;;
21758;SDS011;11041;50.854;20.580;2024-01-30T07:07:06;35.53;;;19.53;;
21758;SDS011;11041;50.854;20.580;2024-01-30T07:09:38;34.87;;;19.60;;
21758;SDS011;11041;50.854;20.580;2024-01-30T07:12:06;32.63;;;17.73;;
21758;SDS011;11041;50.854;20.580;2024-01-30T07:14:33;35.53;;;18.93;;
21758;SDS011;11041;50.854;20.580;2024-01-30T07:16:59;35.40;;;18.50;;
21758;SDS011;11041;50.854;20.580;2024-01-30T07:19:28;48.10;;;27.87;;
21758;SDS011;11041;50.854;20.580;2024-01-30T07:21:55;36.43;;;22.90;;
21758;SDS011;11041;50.854;20.580;2024-01-30T07:24:22;31.88;;;17.35;;
21758;SDS011;11041;50.854;20.580;2024-01-30T07:26:52;31.13;;;18.80;;
21758;SDS011;11041;50.854;20.580;2024-01-30T07:29:19;31.35;;;18.15;;
21758;SDS011;11041;50.854;20.580;2024-01-30T07:31:48;33.85;;;17.95;;
21758;SDS011;11041;50.854;20.580;2024-01-30T07:34:15;33.63;;;18.40;;
21758;SDS011;11041;50.854;20.580;2024-01-30T07:36:42;36.67;;;18.48;;
21758;SDS011;11041;50.854;20.580;2024-01-30T07:39:09;32.42;;;17.65;;
21758;SDS011;11041;50.854;20.580;2024-01-30T07:41:38;37.05;;;18.90;;
21758;SDS011;11041;50.854;20.580;2024-01-30T07:44:07;37.40;;;19.80;;
21758;SDS011;11041;50.854;20.580;2024-01-30T07:46:35;38.20;;;19.65;;
21758;SDS011;11041;50.854;20.580;2024-01-30T07:49:07;30.83;;;17.92;;
21758;SDS011;11041;50.854;20.580;2024-01-30T07:51:38;32.13;;;18.35;;
21758;SDS011;11041;50.854;20.580;2024-01-30T07:54:08;32.38;;;19.33;;
21758;SDS011;11041;50.854;20.580;2024-01-30T07:56:35;33.22;;;19.00;;
21758;SDS011;11041;50.854;20.580;2024-01-30T07:59:03;30.00;;;18.15;;
21758;SDS011;11041;50.854;20.580;2024-01-30T08:01:30;33.42;;;18.15;;
21758;SDS011;11041;50.854;20.580;2024-01-30T08:03:58;34.95;;;19.13;;
21758;SDS011;11041;50.854;20.580;2024-01-30T08:06:27;31.52;;;18.50;;
21758;SDS011;11041;50.854;20.580;2024-01-30T08:08:55;30.08;;;16.80;;
21758;SDS011;11041;50.854;20.580;2024-01-30T08:11:23;31.65;;;18.33;;
21758;SDS011;11041;50.854;20.580;2024-01-30T08:13:58;26.80;;;15.85;;
21758;SDS011;11041;50.854;20.580;2024-01-30T08:16:28;28.17;;;16.55;;
21758;SDS011;11041;50.854;20.580;2024-01-30T08:18:56;30.77;;;16.40;;
21758;SDS011;11041;50.854;20.580;2024-01-30T08:21:25;28.40;;;16.48;;
21758;SDS011;11041;50.854;20.580;2024-01-30T08:23:54;27.67;;;16.15;;
21758;SDS011;11041;50.854;20.580;2024-01-30T08:26:21;30.73;;;17.00;;
21758;SDS011;11041;50.854;20.580;2024-01-30T08:28:52;28.83;;;15.95;;
21758;SDS011;11041;50.854;20.580;2024-01-30T08:31:19;29.52;;;16.65;;
21758;SDS011;11041;50.854;20.580;2024-01-30T08:33:49;28.88;;;16.27;;
21758;SDS011;11041;50.854;20.580;2024-01-30T08:36:20;27.70;;;16.60;;
21758;SDS011;11041;50.854;20.580;2024-01-30T08:38:50;26.27;;;14.73;;
21758;SDS011;11041;50.854;20.580;2024-01-30T08:41:20;26.02;;;15.00;;
21758;SDS011;11041;50.854;20.580;2024-01-30T08:43:47;27.20;;;14.38;;
21758;SDS011;11041;50.854;20.580;2024-01-30T08:46:18;26.55;;;15.98;;
21758;SDS011;11041;50.854;20.580;2024-01-30T08:48:47;26.15;;;14.00;;
21758;SDS011;11041;50.854;20.580;2024-01-30T08:51:16;24.98;;;14.50;;
21758;SDS011;11041;50.854;20.580;2024-01-30T08:53:44;24.08;;;13.88;;
21758;SDS011;11041;50.854;20.580;2024-01-30T08:56:11;22.65;;;14.15;;
21758;SDS011;11041;50.854;20.580;2024-01-30T08:58:41;28.05;;;16.02;;
21758;SDS011;11041;50.854;20.580;2024-01-30T09:01:13;24.63;;;14.68;;
21758;SDS011;11041;50.854;20.580;2024-01-30T09:03:40;23.08;;;13.27;;
21758;SDS011;11041;50.854;20.580;2024-01-30T09:06:09;22.58;;;13.70;;
21758;SDS011;11041;50.854;20.580;2024-01-30T09:08:37;25.58;;;15.02;;
21758;SDS011;11041;50.854;20.580;2024-01-30T09:11:12;26.90;;;14.30;;
21758;SDS011;11041;50.854;20.580;2024-01-30T09:13:41;23.80;;;13.70;;
21758;SDS011;11041;50.854;20.580;2024-01-30T09:16:08;23.98;;;13.70;;
21758;SDS011;11041;50.854;20.580;2024-01-30T09:18:37;25.63;;;14.10;;
21758;SDS011;11041;50.854;20.580;2024-01-30T09:21:05;21.10;;;13.18;;
21758;SDS011;11041;50.854;20.580;2024-01-30T09:23:33;25.98;;;14.15;;
21758;SDS011;11041;50.854;20.580;2024-01-30T09:26:04;24.08;;;14.45;;
21758;SDS011;11041;50.854;20.580;2024-01-30T09:28:30;27.42;;;15.57;;
21758;SDS011;11041;50.854;20.580;2024-01-30T09:30:58;24.35;;;15.00;;
21758;SDS011;11041;50.854;20.580;2024-01-30T09:33:27;24.00;;;14.32;;
21758;SDS011;11041;50.854;20.580;2024-01-30T09:35:58;23.88;;;13.88;;
21758;SDS011;11041;50.854;20.580;2024-01-30T09:38:28;29.88;;;14.80;;
21758;SDS011;11041;50.854;20.580;2024-01-30T09:40:57;24.02;;;14.13;;
21758;SDS011;11041;50.854;20.580;2024-01-30T09:43:36;23.13;;;13.98;;
21758;SDS011;11041;50.854;20.580;2024-01-30T09:46:09;24.27;;;14.00;;
21758;SDS011;11041;50.854;20.580;2024-01-30T09:48:43;22.58;;;14.20;;
21758;SDS011;11041;50.854;20.580;2024-01-30T09:51:14;27.50;;;15.32;;
21758;SDS011;11041;50.854;20.580;2024-01-30T09:53:44;25.00;;;14.68;;
21758;SDS011;11041;50.854;20.580;2024-01-30T09:56:13;23.60;;;14.77;;
21758;SDS011;11041;50.854;20.580;2024-01-30T09:58:45;20.25;;;10.55;;
21758;SDS011;11041;50.854;20.580;2024-01-30T10:01:14;26.25;;;14.30;;
21758;SDS011;11041;50.854;20.580;2024-01-30T10:03:47;21.13;;;13.82;;
21758;SDS011;11041;50.854;20.580;2024-01-30T10:06:18;25.17;;;14.90;;
21758;SDS011;11041;50.854;20.580;2024-01-30T10:08:50;26.27;;;15.65;;
21758;SDS011;11041;50.854;20.580;2024-01-30T10:11:16;28.70;;;14.77;;
21758;SDS011;11041;50.854;20.580;2024-01-30T10:13:47;26.77;;;15.75;;
21758;SDS011;11041;50.854;20.580;2024-01-30T10:16:17;25.80;;;14.75;;
21758;SDS011;11041;50.854;20.580;2024-01-30T10:18:48;26.38;;;15.57;;
21758;SDS011;11041;50.854;20.580;2024-01-30T10:21:17;25.73;;;14.05;;
21758;SDS011;11041;50.854;20.580;2024-01-30T10:23:49;22.42;;;13.90;;
21758;SDS011;11041;50.854;20.580;2024-01-30T10:26:18;21.17;;;12.82;;
21758;SDS011;11041;50.854;20.580;2024-01-30T10:28:47;24.05;;;13.90;;
21758;SDS011;11041;50.854;20.580;2024-01-30T10:31:18;24.77;;;14.50;;
21758;SDS011;11041;50.854;20.580;2024-01-30T10:33:45;22.65;;;12.25;;
21758;SDS011;11041;50.854;20.580;2024-01-30T10:36:14;21.52;;;12.98;;
21758;SDS011;11041;50.854;20.580;2024-01-30T10:38:42;18.50;;;11.52;;
21758;SDS011;11041;50.854;20.580;2024-01-30T10:41:12;19.45;;;11.80;;
21758;SDS011;11041;50.854;20.580;2024-01-30T10:43:48;24.55;;;12.10;;
21758;SDS011;11041;50.854;20.580;2024-01-30T10:46:30;21.90;;;11.80;;
21758;SDS011;11041;50.854;20.580;2024-01-30T10:49:00;21.27;;;11.85;;
21758;SDS011;11041;50.854;20.580;2024-01-30T10:51:28;21.63;;;12.50;;
21758;SDS011;11041;50.854;20.580;2024-01-30T10:53:58;20.63;;;12.75;;
21758;SDS011;11041;50.854;20.580;2024-01-30T10:56:28;23.73;;;13.00;;
21758;SDS011;11041;50.854;20.580;2024-01-30T10:59:00;22.15;;;13.73;;
21758;SDS011;11041;50.854;20.580;2024-01-30T11:01:29;25.88;;;13.38;;
21758;SDS011;11041;50.854;20.580;2024-01-30T11:03:56;23.27;;;14.90;;
21758;SDS011;11041;50.854;20.580;2024-01-30T11:06:24;25.65;;;14.60;;
21758;SDS011;11041;50.854;20.580;2024-01-30T11:09:05;25.95;;;14.60;;
21758;SDS011;11041;50.854;20.580;2024-01-30T11:14:30;23.05;;;14.98;;
21758;SDS011;11041;50.854;20.580;2024-01-30T11:16:59;20.08;;;13.40;;
21758;SDS011;11041;50.854;20.580;2024-01-30T11:19:30;22.85;;;12.82;;
21758;SDS011;11041;50.854;20.580;2024-01-30T11:21:59;22.63;;;13.95;;
21758;SDS011;11041;50.854;20.580;2024-01-30T11:24:27;28.45;;;13.30;;
21758;SDS011;11041;50.854;20.580;2024-01-30T11:26:56;21.17;;;13.25;;
21758;SDS011;11041;50.854;20.580;2024-01-30T11:29:27;19.58;;;11.68;;
21758;SDS011;11041;50.854;20.580;2024-01-30T11:31:55;19.50;;;11.43;;
21758;SDS011;11041;50.854;20.580;2024-01-30T11:34:25;18.90;;;12.55;;
21758;SDS011;11041;50.854;20.580;2024-01-30T11:36:56;20.05;;;11.40;;
21758;SDS011;11041;50.854;20.580;2024-01-30T11:39:34;19.58;;;11.50;;
21758;SDS011;11041;50.854;20.580;2024-01-30T11:42:02;18.40;;;12.18;;
21758;SDS011;11041;50.854;20.580;2024-01-30T11:44:34;22.10;;;12.20;;
21758;SDS011;11041;50.854;20.580;2024-01-30T11:47:02;17.05;;;10.75;;
21758;SDS011;11041;50.854;20.580;2024-01-30T11:49:33;18.10;;;10.98;;
21758;SDS011;11041;50.854;20.580;2024-01-30T11:52:03;20.67;;;11.43;;
21758;SDS011;11041;50.854;20.580;2024-01-30T11:54:34;17.02;;;10.45;;
21758;SDS011;11041;50.854;20.580;2024-01-30T11:57:00;23.05;;;10.77;;
21758;SDS011;11041;50.854;20.580;2024-01-30T11:59:27;18.50;;;10.82;;
21758;SDS011;11041;50.854;20.580;2024-01-30T12:01:56;20.67;;;13.15;;
21758;SDS011;11041;50.854;20.580;2024-01-30T12:04:22;21.05;;;12.13;;
21758;SDS011;11041;50.854;20.580;2024-01-30T12:06:53;19.33;;;11.20;;
21758;SDS011;11041;50.854;20.580;2024-01-30T12:09:20;18.70;;;10.38;;
21758;SDS011;11041;50.854;20.580;2024-01-30T12:11:47;16.85;;;10.00;;
21758;SDS011;11041;50.854;20.580;2024-01-30T12:14:16;17.40;;;9.90;;
21758;SDS011;11041;50.854;20.580;2024-01-30T12:16:47;24.98;;;12.35;;
21758;SDS011;11041;50.854;20.580;2024-01-30T12:19:24;15.88;;;9.70;;
21758;SDS011;11041;50.854;20.580;2024-01-30T12:21:57;18.90;;;11.60;;
21758;SDS011;11041;50.854;20.580;2024-01-30T12:24:28;24.98;;;14.10;;
21758;SDS011;11041;50.854;20.580;2024-01-30T12:26:58;20.10;;;12.30;;
21758;SDS011;11041;50.854;20.580;2024-01-30T12:29:31;20.50;;;11.80;;
21758;SDS011;11041;50.854;20.580;2024-01-30T12:31:59;23.52;;;12.40;;
21758;SDS011;11041;50.854;20.580;2024-01-30T12:34:27;17.75;;;9.88;;
21758;SDS011;11041;50.854;20.580;2024-01-30T12:36:56;18.80;;;10.93;;
21758;SDS011;11041;50.854;20.580;2024-01-30T12:39:26;18.63;;;10.95;;
21758;SDS011;11041;50.854;20.580;2024-01-30T12:41:52;20.60;;;11.75;;
21758;SDS011;11041;50.854;20.580;2024-01-30T12:44:20;17.08;;;9.25;;
21758;SDS011;11041;50.854;20.580;2024-01-30T12:46:49;16.52;;;10.05;;
21758;SDS011;11041;50.854;20.580;2024-01-30T12:49:16;17.38;;;10.32;;
21758;SDS011;11041;50.854;20.580;2024-01-30T12:51:44;18.08;;;11.18;;
21758;SDS011;11041;50.854;20.580;2024-01-30T12:54:13;27.23;;;15.45;;
21758;SDS011;11041;50.854;20.580;2024-01-30T12:56:42;21.00;;;12.32;;
21758;SDS011;11041;50.854;20.580;2024-01-30T12:59:10;27.17;;;14.18;;
21758;SDS011;11041;50.854;20.580;2024-01-30T13:01:38;25.05;;;14.43;;
21758;SDS011;11041;50.854;20.580;2024-01-30T13:04:08;30.55;;;16.80;;
21758;SDS011;11041;50.854;20.580;2024-01-30T13:06:34;23.15;;;13.93;;
21758;SDS011;11041;50.854;20.580;2024-01-30T13:09:01;23.75;;;13.43;;
21758;SDS011;11041;50.854;20.580;2024-01-30T13:11:32;23.23;;;14.40;;
21758;SDS011;11041;50.854;20.580;2024-01-30T13:14:01;19.75;;;12.27;;
21758;SDS011;11041;50.854;20.580;2024-01-30T13:16:28;27.42;;;13.77;;
21758;SDS011;11041;50.854;20.580;2024-01-30T13:18:57;26.45;;;15.32;;
21758;SDS011;11041;50.854;20.580;2024-01-30T13:21:29;19.77;;;12.02;;
21758;SDS011;11041;50.854;20.580;2024-01-30T13:23:56;29.55;;;15.10;;
21758;SDS011;11041;50.854;20.580;2024-01-30T13:26:26;16.83;;;10.45;;
21758;SDS011;11041;50.854;20.580;2024-01-30T13:28:54;54.83;;;26.23;;
21758;SDS011;11041;50.854;20.580;2024-01-30T13:31:23;36.17;;;19.30;;
21758;SDS011;11041;50.854;20.580;2024-01-30T13:33:54;26.20;;;12.98;;
21758;SDS011;11041;50.854;20.580;2024-01-30T13:36:22;22.55;;;13.52;;
21758;SDS011;11041;50.854;20.580;2024-01-30T13:38:51;20.33;;;9.15;;
21758;SDS011;11041;50.854;20.580;2024-01-30T13:41:19;18.17;;;10.68;;
21758;SDS011;11041;50.854;20.580;2024-01-30T13:43:50;19.05;;;10.90;;
21758;SDS011;11041;50.854;20.580;2024-01-30T13:46:20;22.42;;;12.55;;
21758;SDS011;11041;50.854;20.580;2024-01-30T13:48:47;20.98;;;12.73;;
21758;SDS011;11041;50.854;20.580;2024-01-30T13:51:16;20.40;;;11.80;;
21758;SDS011;11041;50.854;20.580;2024-01-30T13:53:47;23.00;;;12.43;;
21758;SDS011;11041;50.854;20.580;2024-01-30T13:56:15;17.67;;;11.02;;
21758;SDS011;11041;50.854;20.580;2024-01-30T13:58:44;19.55;;;11.27;;
21758;SDS011;11041;50.854;20.580;2024-01-30T14:01:11;18.98;;;11.38;;
21758;SDS011;11041;50.854;20.580;2024-01-30T14:03:39;20.08;;;11.77;;
21758;SDS011;11041;50.854;20.580;2024-01-30T14:06:05;19.98;;;11.27;;
21758;SDS011;11041;50.854;20.580;2024-01-30T14:08:35;21.50;;;11.50;;
21758;SDS011;11041;50.854;20.580;2024-01-30T14:11:02;18.77;;;11.93;;
21758;SDS011;11041;50.854;20.580;2024-01-30T14:13:32;19.13;;;12.05;;
21758;SDS011;11041;50.854;20.580;2024-01-30T14:16:02;24.88;;;13.05;;
21758;SDS011;11041;50.854;20.580;2024-01-30T14:18:30;21.20;;;12.10;;
21758;SDS011;11041;50.854;20.580;2024-01-30T14:20:56;27.48;;;14.15;;